createdAt,value
2018-07-16T00:01:05.242Z,64.77
2018-07-16T00:03:34.374Z,64.83
2018-07-16T00:06:03.428Z,65.58
2018-07-16T00:08:32.543Z,65.84
2018-07-16T00:11:01.486Z,65.99
2018-07-16T00:13:30.705Z,64.62
2018-07-16T00:15:59.670Z,65.33
2018-07-16T00:18:28.741Z,65.22
2018-07-16T00:20:57.701Z,64.29
2018-07-16T00:23:27.481Z,65.26
2018-07-16T00:25:56.727Z,65.89
2018-07-16T00:28:26.287Z,65.74
2018-07-16T00:30:55.430Z,65.94
2018-07-16T00:33:24.363Z,65.87
2018-07-16T00:35:53.320Z,66.02
2018-07-16T00:38:22.497Z,65.08
2018-07-16T00:40:52.415Z,65.40
2018-07-16T00:43:21.721Z,65.17
2018-07-16T00:45:50.964Z,66.03
2018-07-16T00:48:19.953Z,65.87
2018-07-16T00:50:48.929Z,65.82
2018-07-16T00:53:18.814Z,66.25
2018-07-16T00:55:47.932Z,66.54
2018-07-16T00:58:17.000Z,66.73
2018-07-16T01:00:46.600Z,66.37
2018-07-16T01:03:15.828Z,67.02
2018-07-16T01:05:44.806Z,68.28
2018-07-16T01:08:13.739Z,69.25
2018-07-16T01:10:42.842Z,68.71
2018-07-16T01:13:12.054Z,69.35
2018-07-16T01:15:41.187Z,69.76
2018-07-16T01:18:10.292Z,69.48
2018-07-16T01:20:39.584Z,70.30
2018-07-16T01:23:08.568Z,70.23
2018-07-16T01:25:37.676Z,70.09
2018-07-16T01:28:06.695Z,70.11
2018-07-16T01:30:35.706Z,69.87
2018-07-16T01:33:04.711Z,70.57
2018-07-16T01:35:33.746Z,71.83
2018-07-16T01:38:02.730Z,74.69
2018-07-16T01:40:32.365Z,73.08
2018-07-16T01:43:01.346Z,72.60
2018-07-16T01:45:30.979Z,71.87
2018-07-16T01:48:00.242Z,72.17
2018-07-16T01:50:29.342Z,72.70
2018-07-16T01:52:58.339Z,72.50
2018-07-16T01:55:27.627Z,72.34
2018-07-16T01:57:56.868Z,72.24
2018-07-16T02:00:26.237Z,73.03
2018-07-16T02:02:55.755Z,74.44
2018-07-16T02:05:25.184Z,73.96
2018-07-16T02:07:54.461Z,73.75
2018-07-16T02:10:23.840Z,72.96
2018-07-16T02:12:53.175Z,73.98
2018-07-16T02:15:22.446Z,74.66
2018-07-16T02:17:51.712Z,74.34
2018-07-16T02:20:21.148Z,74.92
2018-07-16T02:22:50.224Z,75.14
2018-07-16T02:25:19.948Z,75.33
2018-07-16T02:27:49.015Z,76.07
2018-07-16T02:30:18.527Z,75.45
2018-07-16T02:32:47.615Z,76.47
2018-07-16T02:35:16.747Z,77.14
2018-07-16T02:37:46.037Z,77.21
2018-07-16T02:40:15.713Z,76.74
2018-07-16T02:42:46.205Z,77.01
2018-07-16T02:45:15.216Z,76.75
2018-07-16T02:47:44.504Z,77.74
2018-07-16T02:50:13.764Z,77.89
2018-07-16T02:52:43.092Z,77.74
2018-07-16T02:55:12.454Z,77.39
2018-07-16T02:57:41.597Z,78.93
2018-07-16T03:00:10.783Z,78.93
2018-07-16T03:02:40.600Z,78.70
2018-07-16T03:05:15.874Z,78.78
2018-07-16T03:07:45.995Z,78.41
2018-07-16T03:10:15.663Z,78.18
2018-07-16T03:12:45.478Z,77.92
2018-07-16T03:15:15.291Z,78.84
2018-07-16T03:17:44.297Z,77.76
2018-07-16T03:20:13.503Z,78.11
2018-07-16T03:22:43.086Z,78.64
2018-07-16T03:25:12.359Z,78.46
2018-07-16T03:27:41.894Z,78.01
2018-07-16T03:30:11.150Z,78.68
2018-07-16T03:32:40.835Z,78.31
2018-07-16T03:35:09.798Z,78.34
2018-07-16T03:37:39.125Z,78.62
2018-07-16T03:40:08.634Z,77.93
2018-07-16T03:42:37.834Z,78.45
2018-07-16T03:45:07.709Z,78.89
2018-07-16T03:47:36.782Z,78.99
2018-07-16T03:50:09.646Z,79.80
2018-07-16T03:52:38.761Z,81.26
2018-07-16T03:55:08.334Z,82.69
2018-07-16T03:57:37.308Z,81.82
2018-07-16T04:00:08.313Z,81.65
2018-07-16T04:02:37.396Z,81.27
2018-07-16T04:05:08.499Z,81.51
2018-07-16T04:07:37.590Z,80.91
2018-07-16T04:10:09.595Z,79.75
2018-07-16T04:12:39.512Z,80.11
2018-07-16T04:15:08.568Z,79.88
2018-07-16T04:17:38.107Z,80.03
2018-07-16T04:20:08.300Z,82.00
2018-07-16T04:22:37.406Z,81.72
2018-07-16T04:25:08.362Z,80.81
2018-07-16T04:27:37.430Z,80.84
2018-07-16T04:30:08.373Z,79.96
2018-07-16T04:32:37.701Z,80.94
2018-07-16T04:35:08.234Z,80.64
2018-07-16T04:37:37.696Z,80.82
2018-07-16T04:40:08.612Z,80.40
2018-07-16T04:42:38.986Z,80.23
2018-07-16T04:45:08.814Z,79.14
2018-07-16T04:47:38.034Z,78.79
2018-07-16T04:50:08.575Z,79.99
2018-07-16T04:52:38.171Z,78.20
2018-07-16T04:55:09.006Z,76.28
2018-07-16T04:57:38.263Z,75.59
2018-07-16T05:00:08.542Z,76.49
2018-07-16T05:02:37.494Z,75.31
2018-07-16T05:05:08.095Z,74.73
2018-07-16T05:07:37.502Z,73.27
2018-07-16T05:10:08.855Z,73.91
2018-07-16T05:12:38.143Z,73.59
2018-07-16T05:15:08.311Z,73.16
2018-07-16T05:17:37.564Z,73.79
2018-07-16T05:20:08.405Z,73.07
2018-07-16T05:22:37.352Z,73.00
2018-07-16T05:25:08.251Z,73.25
2018-07-16T05:27:37.336Z,74.55
2018-07-16T05:30:08.087Z,74.51
2018-07-16T05:32:37.892Z,74.26
2018-07-16T05:35:08.154Z,74.07
2018-07-16T05:37:38.019Z,74.09
2018-07-16T05:40:07.699Z,73.39
2018-07-16T05:42:36.923Z,73.09
2018-07-16T05:45:08.303Z,73.04
2018-07-16T05:47:37.261Z,73.07
2018-07-16T05:50:07.897Z,74.90
2018-07-16T05:52:36.969Z,76.01
2018-07-16T05:55:07.602Z,73.53
2018-07-16T05:57:36.702Z,73.16
2018-07-16T06:00:09.213Z,73.23
2018-07-16T06:02:38.392Z,72.86
2018-07-16T06:05:07.877Z,73.07
2018-07-16T06:07:36.852Z,72.43
2018-07-16T06:10:08.014Z,71.32
2018-07-16T06:12:36.979Z,71.91
2018-07-16T06:15:09.672Z,71.51
2018-07-16T06:17:38.783Z,70.52
2018-07-16T06:20:09.827Z,71.17
2018-07-16T06:22:39.751Z,70.70
2018-07-16T06:25:09.554Z,68.90
2018-07-16T06:27:39.293Z,68.55
2018-07-16T06:30:08.466Z,67.72
2018-07-16T06:32:37.555Z,70.03
2018-07-16T06:35:07.053Z,70.63
2018-07-16T06:37:36.189Z,69.96
2018-07-16T06:40:08.422Z,70.42
2018-07-16T06:42:37.614Z,69.90
2018-07-16T06:45:06.918Z,70.30
2018-07-16T06:47:36.247Z,69.89
2018-07-16T06:50:07.431Z,68.14
2018-07-16T06:52:37.196Z,68.65
2018-07-16T06:55:07.955Z,68.13
2018-07-16T06:57:37.239Z,69.21
2018-07-16T07:00:07.805Z,68.32
2018-07-16T07:02:37.031Z,67.67
2018-07-16T07:05:07.470Z,66.12
2018-07-16T07:07:36.414Z,65.06
2018-07-16T07:10:08.805Z,63.47
2018-07-16T07:12:37.828Z,62.10
2018-07-16T07:15:06.975Z,60.48
2018-07-16T07:17:36.433Z,60.67
2018-07-16T07:20:07.487Z,59.57
2018-07-16T07:22:36.663Z,55.93
2018-07-16T07:25:07.309Z,49.62
2018-07-16T07:27:36.375Z,49.05
2018-07-16T07:30:08.763Z,47.24
2018-07-16T07:32:38.089Z,43.20
2018-07-16T07:35:07.408Z,44.27
2018-07-16T07:37:36.668Z,45.35
2018-07-16T07:40:06.873Z,48.64
2018-07-16T07:42:35.807Z,49.35
2018-07-16T07:45:08.617Z,52.76
2018-07-16T07:47:37.774Z,56.27
2018-07-16T07:50:06.835Z,58.70
2018-07-16T07:52:36.068Z,58.30
2018-07-16T07:55:07.895Z,57.21
2018-07-16T07:57:36.676Z,57.38
2018-07-16T08:00:07.135Z,57.31
2018-07-16T08:02:36.445Z,52.75
2018-07-16T08:05:08.790Z,49.74
2018-07-16T08:07:37.963Z,44.43
2018-07-16T08:10:06.995Z,43.41
2018-07-16T08:12:36.242Z,46.18
2018-07-16T08:15:08.912Z,49.29
2018-07-16T08:17:38.954Z,46.36
2018-07-16T08:20:08.594Z,43.78
2018-07-16T08:22:37.851Z,44.25
2018-07-16T08:25:06.819Z,46.61
2018-07-16T08:27:36.065Z,47.86
2018-07-16T08:30:07.320Z,49.24
2018-07-16T08:32:36.957Z,50.82
2018-07-16T08:35:07.874Z,49.93
2018-07-16T08:37:36.865Z,50.66
2018-07-16T08:40:08.319Z,51.32
2018-07-16T08:42:37.527Z,49.67
2018-07-16T08:45:07.617Z,44.45
2018-07-16T08:47:37.506Z,41.44
2018-07-16T08:50:07.027Z,41.84
2018-07-16T08:52:36.140Z,44.09
2018-07-16T08:55:07.310Z,44.56
2018-07-16T08:57:36.359Z,40.26
2018-07-16T09:00:09.708Z,37.91
2018-07-16T09:02:40.067Z,41.05
2018-07-16T09:05:09.988Z,37.67
2018-07-16T09:07:38.999Z,38.55
2018-07-16T09:10:08.618Z,36.29
2018-07-16T09:12:37.775Z,37.67
2018-07-16T09:15:07.221Z,37.82
2018-07-16T09:17:36.275Z,40.96
2018-07-16T09:20:09.111Z,42.29
2018-07-16T09:22:38.390Z,39.36
2018-07-16T09:25:08.343Z,36.72
2018-07-16T09:27:37.562Z,34.19
2018-07-16T09:30:07.341Z,32.73
2018-07-16T09:32:36.818Z,29.69
2018-07-16T09:35:07.730Z,32.80
2018-07-16T09:37:36.822Z,31.52
2018-07-16T09:40:08.008Z,31.18
2018-07-16T09:42:37.034Z,31.34
2018-07-16T09:45:08.456Z,30.30
2018-07-16T09:47:37.583Z,30.78
2018-07-16T09:50:07.480Z,31.04
2018-07-16T09:52:36.628Z,31.05
2018-07-16T09:55:07.406Z,32.32
2018-07-16T09:57:36.341Z,34.99
2018-07-16T10:00:08.496Z,30.19
2018-07-16T10:02:37.582Z,28.49
2018-07-16T10:05:07.726Z,26.64
2018-07-16T10:07:36.654Z,24.83
2018-07-16T10:10:07.818Z,29.15
2018-07-16T10:12:36.935Z,26.44
2018-07-16T10:15:07.395Z,25.69
2018-07-16T10:17:36.587Z,24.45
2018-07-16T10:20:07.590Z,24.41
2018-07-16T10:22:36.786Z,24.71
2018-07-16T10:25:08.790Z,23.58
2018-07-16T10:27:37.966Z,23.18
2018-07-16T10:30:07.700Z,22.76
2018-07-16T10:32:36.637Z,29.59
2018-07-16T10:35:07.556Z,32.19
2018-07-16T10:37:36.623Z,31.78
2018-07-16T10:40:07.852Z,30.18
2018-07-16T10:42:37.632Z,28.21
2018-07-16T10:45:08.458Z,29.94
2018-07-16T10:47:38.426Z,28.02
2018-07-16T10:50:07.553Z,25.08
2018-07-16T10:52:37.235Z,24.26
2018-07-16T10:55:08.362Z,28.47
2018-07-16T10:57:37.562Z,31.17
2018-07-16T11:00:07.115Z,30.58
2018-07-16T11:02:36.783Z,30.07
2018-07-16T11:05:08.185Z,27.67
2018-07-16T11:07:37.408Z,26.92
2018-07-16T11:10:07.758Z,29.22
2018-07-16T11:12:36.822Z,26.80
2018-07-16T11:15:07.870Z,28.26
2018-07-16T11:17:37.906Z,28.60
2018-07-16T11:20:08.896Z,31.34
2018-07-16T11:22:39.724Z,30.69
2018-07-16T11:25:09.484Z,29.93
2018-07-16T11:27:38.878Z,30.74
2018-07-16T11:30:08.838Z,30.15
2018-07-16T11:32:37.926Z,31.72
2018-07-16T11:35:07.207Z,31.74
2018-07-16T11:37:36.308Z,33.68
2018-07-16T11:40:09.103Z,32.98
2018-07-16T11:42:38.423Z,32.28
2018-07-16T11:45:07.772Z,32.46
2018-07-16T11:47:36.950Z,33.88
2018-07-16T11:50:07.729Z,31.93
2018-07-16T11:52:36.752Z,31.11
2018-07-16T11:55:07.758Z,34.20
2018-07-16T11:57:36.959Z,33.47
2018-07-16T12:00:07.853Z,33.49
2018-07-16T12:02:36.818Z,33.61
2018-07-16T12:05:08.054Z,32.64
2018-07-16T12:07:36.935Z,32.82
2018-07-16T12:10:07.730Z,31.96
2018-07-16T12:12:36.743Z,33.18
2018-07-16T12:15:07.526Z,32.82
2018-07-16T12:17:36.797Z,32.46
2018-07-16T12:20:07.595Z,31.25
2018-07-16T12:22:37.359Z,32.49
2018-07-16T12:25:07.619Z,31.46
2018-07-16T12:27:36.740Z,32.53
2018-07-16T12:30:07.236Z,29.87
2018-07-16T12:32:36.576Z,28.57
2018-07-16T12:35:07.898Z,28.16
2018-07-16T12:37:37.048Z,28.24
2018-07-16T12:40:08.030Z,28.83
2018-07-16T12:42:36.994Z,26.48
2018-07-16T12:45:08.118Z,26.79
2018-07-16T12:47:37.039Z,27.32
2018-07-16T12:50:07.702Z,28.16
2018-07-16T12:52:36.811Z,26.69
2018-07-16T12:55:07.792Z,30.68
2018-07-16T12:57:37.084Z,26.62
2018-07-16T13:00:07.752Z,27.89
2018-07-16T13:02:36.976Z,25.69
2018-07-16T13:05:07.220Z,28.38
2018-07-16T13:07:36.227Z,26.25
2018-07-16T13:10:09.195Z,25.99
2018-07-16T13:12:38.687Z,26.57
2018-07-16T13:15:07.786Z,26.27
2018-07-16T13:17:37.547Z,25.26
2018-07-16T13:20:08.150Z,25.65
2018-07-16T13:22:37.644Z,25.20
2018-07-16T13:25:08.715Z,25.88
2018-07-16T13:27:38.011Z,22.91
2018-07-16T13:30:07.743Z,23.56
2018-07-16T13:32:37.229Z,24.02
2018-07-16T13:35:08.152Z,23.76
2018-07-16T13:37:37.238Z,23.77
2018-07-16T13:40:07.158Z,23.31
2018-07-16T13:42:36.308Z,23.79
2018-07-16T13:45:08.847Z,23.04
2018-07-16T13:47:38.350Z,23.40
2018-07-16T13:50:07.566Z,24.67
2018-07-16T13:52:36.651Z,25.14
2018-07-16T13:55:07.808Z,25.14
2018-07-16T13:57:37.084Z,24.75
2018-07-16T14:00:08.258Z,24.68
2018-07-16T14:02:37.594Z,24.88
2018-07-16T14:05:08.160Z,25.16
2018-07-16T14:07:37.607Z,25.05
2018-07-16T14:10:07.853Z,25.33
2018-07-16T14:12:37.042Z,23.95
2018-07-16T14:15:07.156Z,22.93
2018-07-16T14:17:37.032Z,23.36
2018-07-16T14:20:07.206Z,23.72
2018-07-16T14:22:36.163Z,23.30
2018-07-16T14:25:07.289Z,22.70
2018-07-16T14:27:36.247Z,24.25
2018-07-16T14:30:07.917Z,23.13
2018-07-16T14:32:36.955Z,23.52
2018-07-16T14:35:07.987Z,23.73
2018-07-16T14:37:37.167Z,23.72
2018-07-16T14:40:08.572Z,23.68
2018-07-16T14:42:37.666Z,24.31
2018-07-16T14:45:07.815Z,24.43
2018-07-16T14:47:36.836Z,23.52
2018-07-16T14:50:09.318Z,24.62
2018-07-16T14:52:38.730Z,24.29
2018-07-16T14:55:09.513Z,23.88
2018-07-16T14:57:39.352Z,24.02
2018-07-16T15:00:08.473Z,23.24
2018-07-16T15:02:37.442Z,23.63
2018-07-16T15:05:07.612Z,25.51
2018-07-16T15:07:37.499Z,25.19
2018-07-16T15:10:07.668Z,23.79
2018-07-16T15:12:37.171Z,24.80
2018-07-16T15:15:07.251Z,22.63
2018-07-16T15:17:36.247Z,23.65
2018-07-16T15:20:08.614Z,23.76
2018-07-16T15:22:37.905Z,25.29
2018-07-16T15:25:08.310Z,23.70
2018-07-16T15:27:37.816Z,22.33
2018-07-16T15:30:12.329Z,23.12
2018-07-16T15:32:41.855Z,22.98
2018-07-16T15:35:10.945Z,23.45
2018-07-16T15:37:40.244Z,23.21
2018-07-16T15:40:09.206Z,22.96
2018-07-16T15:42:38.287Z,22.90
2018-07-16T15:45:07.427Z,23.16
2018-07-16T15:47:36.391Z,23.55
2018-07-16T15:50:08.669Z,22.54
2018-07-16T15:52:37.904Z,23.71
2018-07-16T15:55:07.706Z,23.36
2018-07-16T15:57:36.793Z,24.77
2018-07-16T16:00:09.127Z,23.97
2018-07-16T16:02:38.368Z,24.95
2018-07-16T16:05:07.701Z,24.99
2018-07-16T16:07:36.751Z,25.70
2018-07-16T16:10:08.567Z,24.75
2018-07-16T16:12:37.559Z,25.45
2018-07-16T16:15:08.429Z,24.79
2018-07-16T16:17:37.666Z,24.60
2018-07-16T16:20:07.896Z,24.59
2018-07-16T16:22:36.939Z,24.36
2018-07-16T16:25:07.894Z,24.41
2018-07-16T16:27:37.455Z,23.76
2018-07-16T16:30:08.486Z,24.26
2018-07-16T16:32:37.696Z,24.26
2018-07-16T16:35:07.858Z,23.83
2018-07-16T16:37:36.984Z,25.41
2018-07-16T16:40:07.951Z,24.36
2018-07-16T16:42:37.980Z,24.18
2018-07-16T16:45:07.668Z,24.21
2018-07-16T16:47:36.625Z,24.60
2018-07-16T16:50:09.212Z,24.00
2018-07-16T16:52:38.367Z,24.20
2018-07-16T16:55:07.514Z,24.20
2018-07-16T16:57:37.007Z,24.99
2018-07-16T17:00:08.156Z,23.76
2018-07-16T17:02:37.565Z,24.36
2018-07-16T17:05:08.416Z,24.32
2018-07-16T17:07:42.277Z,24.90
2018-07-16T17:10:11.504Z,25.26
2018-07-16T17:12:40.472Z,24.82
2018-07-16T17:15:09.783Z,25.27
2018-07-16T17:17:39.502Z,25.75
2018-07-16T17:20:09.264Z,24.91
2018-07-16T17:22:38.526Z,25.23
2018-07-16T17:25:07.826Z,25.84
2018-07-16T17:27:37.535Z,25.28
2018-07-16T17:30:08.226Z,24.47
2018-07-16T17:32:37.315Z,24.34
2018-07-16T17:35:08.418Z,25.21
2018-07-16T17:37:37.672Z,24.09
2018-07-16T17:40:13.607Z,24.98
2018-07-16T17:42:42.674Z,26.52
2018-07-16T17:45:12.572Z,26.23
2018-07-16T17:47:41.837Z,26.01
2018-07-16T17:50:11.257Z,25.33
2018-07-16T17:52:40.538Z,24.92
2018-07-16T17:55:09.532Z,25.82
2018-07-16T17:57:38.663Z,25.70
2018-07-16T18:00:08.139Z,25.63
2018-07-16T18:02:37.321Z,24.43
2018-07-16T18:05:08.087Z,25.03
2018-07-16T18:07:37.224Z,24.75
2018-07-16T18:10:08.645Z,24.87
2018-07-16T18:12:37.704Z,25.93
2018-07-16T18:15:08.467Z,26.46
2018-07-16T18:17:38.212Z,27.21
2018-07-16T18:20:07.684Z,27.80
2018-07-16T18:22:37.421Z,28.19
2018-07-16T18:25:07.846Z,27.78
2018-07-16T18:27:37.113Z,27.71
2018-07-16T18:30:08.090Z,28.60
2018-07-16T18:32:38.311Z,28.89
2018-07-16T18:35:07.603Z,29.30
2018-07-16T18:37:36.883Z,29.78
2018-07-16T18:40:07.763Z,29.49
2018-07-16T18:42:41.144Z,30.08
2018-07-16T18:45:10.377Z,30.53
2018-07-16T18:47:40.202Z,30.41
2018-07-16T18:50:10.268Z,30.80
2018-07-16T18:52:39.230Z,30.85
2018-07-16T18:55:08.429Z,31.03
2018-07-16T18:57:38.213Z,32.50
2018-07-16T19:00:08.817Z,32.65
2018-07-16T19:02:37.889Z,32.57
2018-07-16T19:05:08.304Z,31.96
2018-07-16T19:07:38.340Z,33.06
2018-07-16T19:10:08.101Z,33.05
2018-07-16T19:12:37.315Z,34.43
2018-07-16T19:15:13.910Z,33.39
2018-07-16T19:17:43.283Z,34.56
2018-07-16T19:20:12.795Z,34.19
2018-07-16T19:22:41.878Z,35.17
2018-07-16T19:25:11.197Z,34.59
2018-07-16T19:27:41.536Z,34.73
2018-07-16T19:30:10.667Z,35.10
2018-07-16T19:32:39.924Z,34.83
2018-07-16T19:35:09.214Z,35.14
2018-07-16T19:37:40.094Z,35.58
2018-07-16T19:40:10.660Z,36.19
2018-07-16T19:42:41.396Z,37.01
2018-07-16T19:45:10.590Z,38.08
2018-07-16T19:47:40.302Z,38.10
2018-07-16T19:50:09.400Z,38.38
2018-07-16T19:52:39.068Z,39.86
2018-07-16T19:55:08.139Z,41.14
2018-07-16T19:57:37.413Z,40.70
2018-07-16T20:00:08.054Z,41.17
2018-07-16T20:02:37.334Z,40.24
2018-07-16T20:05:09.395Z,42.26
2018-07-16T20:07:38.390Z,42.35
2018-07-16T20:10:08.349Z,42.19
2018-07-16T20:12:38.302Z,43.55
2018-07-16T20:15:09.685Z,43.48
2018-07-16T20:17:38.658Z,43.39
2018-07-16T20:20:09.372Z,43.25
2018-07-16T20:22:38.381Z,44.67
2018-07-16T20:25:08.413Z,45.58
2018-07-16T20:27:37.590Z,45.14
2018-07-16T20:30:09.600Z,44.14
2018-07-16T20:32:38.817Z,42.41
2018-07-16T20:35:08.263Z,42.19
2018-07-16T20:37:37.471Z,42.86
2018-07-16T20:40:08.281Z,42.36
2018-07-16T20:42:37.346Z,43.14
2018-07-16T20:45:09.360Z,43.71
2018-07-16T20:47:38.445Z,42.91
2018-07-16T20:50:07.850Z,44.01
2018-07-16T20:52:37.149Z,44.23
2018-07-16T20:55:09.398Z,44.90
2018-07-16T20:57:38.738Z,45.09
2018-07-16T21:00:08.174Z,45.43
2018-07-16T21:02:37.155Z,46.17
2018-07-16T21:05:10.679Z,46.25
2018-07-16T21:07:40.428Z,46.22
2018-07-16T21:10:11.067Z,47.10
2018-07-16T21:12:40.428Z,48.51
2018-07-16T21:15:09.558Z,48.98
2018-07-16T21:17:39.162Z,48.70
2018-07-16T21:20:10.246Z,48.56
2018-07-16T21:22:39.399Z,49.84
2018-07-16T21:25:09.921Z,49.45
2018-07-16T21:27:38.935Z,49.78
2018-07-16T21:30:08.253Z,50.32
2018-07-16T21:32:37.352Z,50.83
2018-07-16T21:35:08.231Z,52.20
2018-07-16T21:37:37.351Z,52.30
2018-07-16T21:40:09.024Z,51.85
2018-07-16T21:42:38.033Z,52.47
2018-07-16T21:45:09.164Z,53.49
2018-07-16T21:47:38.313Z,54.84
2018-07-16T21:50:08.227Z,54.41
2018-07-16T21:52:37.159Z,55.09
2018-07-16T21:55:08.088Z,54.78
2018-07-16T21:57:37.175Z,55.92
2018-07-16T22:00:11.150Z,55.64
2018-07-16T22:02:40.079Z,56.34
2018-07-16T22:05:09.370Z,56.82
2018-07-16T22:07:38.863Z,57.76
2018-07-16T22:10:07.946Z,57.21
2018-07-16T22:12:37.864Z,57.58
2018-07-16T22:15:12.632Z,57.77
2018-07-16T22:17:41.607Z,56.82
2018-07-16T22:20:10.892Z,57.96
2018-07-16T22:22:40.000Z,58.46
2018-07-16T22:25:08.973Z,58.15
2018-07-16T22:27:38.071Z,58.59
2018-07-16T22:30:07.153Z,58.52
2018-07-16T22:32:36.140Z,57.96
2018-07-16T22:35:08.731Z,58.19
2018-07-16T22:37:37.820Z,58.39
2018-07-16T22:40:08.050Z,58.66
2018-07-16T22:42:37.015Z,59.52
2018-07-16T22:45:08.390Z,60.12
2018-07-16T22:47:37.406Z,60.18
2018-07-16T22:50:08.007Z,60.64
2018-07-16T22:52:36.998Z,60.24
2018-07-16T22:55:07.265Z,60.27
2018-07-16T22:57:37.223Z,61.50
2018-07-16T23:00:07.780Z,61.81
2018-07-16T23:02:36.720Z,61.71
2018-07-16T23:05:07.059Z,62.16
2018-07-16T23:07:36.583Z,62.64
2018-07-16T23:10:09.094Z,62.23
2018-07-16T23:12:38.893Z,62.73
2018-07-16T23:15:08.100Z,63.19
2018-07-16T23:17:37.056Z,63.43
2018-07-16T23:20:07.630Z,64.25
2018-07-16T23:22:51.923Z,64.18
2018-07-16T23:25:21.564Z,63.68
2018-07-16T23:27:50.621Z,64.63
2018-07-16T23:30:19.864Z,64.09
2018-07-16T23:32:48.937Z,64.77
2018-07-16T23:35:18.464Z,65.70
2018-07-16T23:37:47.499Z,65.75
2018-07-16T23:40:17.049Z,66.87
2018-07-16T23:42:46.555Z,67.26
2018-07-16T23:45:15.659Z,67.02
2018-07-16T23:47:45.209Z,67.22
2018-07-16T23:50:14.231Z,67.16
2018-07-16T23:52:43.201Z,67.80
2018-07-16T23:55:12.134Z,67.76
2018-07-16T23:57:41.943Z,67.90
